sensor_id;sensor_type;location;lat;lon;timestamp;P1;durP1;ratioP1;P2;durP2;ratioP2
65799;SDS011;52544;48.116;11.660;2023-01-28T00:00:04;36.47;;;14.35;;
65799;SDS011;52544;48.116;11.660;2023-01-28T00:02:34;33.22;;;12.57;;
65799;SDS011;52544;48.116;11.660;2023-01-28T00:05:00;33.97;;;13.90;;
65799;SDS011;52544;48.116;11.660;2023-01-28T00:07:26;35.28;;;12.40;;
65799;SDS011;52544;48.116;11.660;2023-01-28T00:09:52;36.58;;;14.05;;
65799;SDS011;52544;48.116;11.660;2023-01-28T00:12:17;32.25;;;13.32;;
65799;SDS011;52544;48.116;11.660;2023-01-28T00:14:43;37.60;;;13.15;;
65799;SDS011;52544;48.116;11.660;2023-01-28T00:17:10;29.85;;;12.55;;
65799;SDS011;52544;48.116;11.660;2023-01-28T00:19:36;34.05;;;13.73;;
65799;SDS011;52544;48.116;11.660;2023-01-28T00:22:01;33.58;;;13.45;;
65799;SDS011;52544;48.116;11.660;2023-01-28T00:24:28;29.77;;;12.88;;
65799;SDS011;52544;48.116;11.660;2023-01-28T00:26:54;30.27;;;13.57;;
65799;SDS011;52544;48.116;11.660;2023-01-28T00:29:19;29.98;;;12.13;;
65799;SDS011;52544;48.116;11.660;2023-01-28T00:31:45;30.85;;;13.63;;
65799;SDS011;52544;48.116;11.660;2023-01-28T00:34:10;34.97;;;13.95;;
65799;SDS011;52544;48.116;11.660;2023-01-28T00:36:35;30.73;;;13.35;;
65799;SDS011;52544;48.116;11.660;2023-01-28T00:39:03;30.33;;;13.25;;
65799;SDS011;52544;48.116;11.660;2023-01-28T00:41:30;31.75;;;13.10;;
65799;SDS011;52544;48.116;11.660;2023-01-28T00:43:56;34.10;;;13.82;;
65799;SDS011;52544;48.116;11.660;2023-01-28T00:46:22;32.78;;;13.20;;
65799;SDS011;52544;48.116;11.660;2023-01-28T00:48:49;29.88;;;12.35;;
65799;SDS011;52544;48.116;11.660;2023-01-28T00:51:15;32.95;;;12.88;;
65799;SDS011;52544;48.116;11.660;2023-01-28T00:53:42;35.22;;;13.73;;
65799;SDS011;52544;48.116;11.660;2023-01-28T00:56:10;28.92;;;12.63;;
65799;SDS011;52544;48.116;11.660;2023-01-28T00:58:37;30.15;;;13.15;;
65799;SDS011;52544;48.116;11.660;2023-01-28T01:01:09;34.80;;;13.15;;
65799;SDS011;52544;48.116;11.660;2023-01-28T01:03:36;30.63;;;12.55;;
65799;SDS011;52544;48.116;11.660;2023-01-28T01:06:02;32.50;;;11.70;;
65799;SDS011;52544;48.116;11.660;2023-01-28T01:08:28;33.50;;;12.82;;
65799;SDS011;52544;48.116;11.660;2023-01-28T01:10:59;31.10;;;13.05;;
65799;SDS011;52544;48.116;11.660;2023-01-28T01:13:27;30.75;;;13.13;;
65799;SDS011;52544;48.116;11.660;2023-01-28T01:16:07;27.52;;;12.10;;
65799;SDS011;52544;48.116;11.660;2023-01-28T01:18:33;32.10;;;12.23;;
65799;SDS011;52544;48.116;11.660;2023-01-28T01:20:58;28.15;;;11.85;;
65799;SDS011;52544;48.116;11.660;2023-01-28T01:23:25;33.30;;;13.05;;
65799;SDS011;52544;48.116;11.660;2023-01-28T01:25:51;28.58;;;11.93;;
65799;SDS011;52544;48.116;11.660;2023-01-28T01:28:16;31.05;;;12.93;;
65799;SDS011;52544;48.116;11.660;2023-01-28T01:30:42;32.78;;;13.18;;
65799;SDS011;52544;48.116;11.660;2023-01-28T01:33:07;30.85;;;13.15;;
65799;SDS011;52544;48.116;11.660;2023-01-28T01:35:33;30.52;;;12.68;;
65799;SDS011;52544;48.116;11.660;2023-01-28T01:37:58;35.13;;;13.32;;
65799;SDS011;52544;48.116;11.660;2023-01-28T01:40:24;28.70;;;12.02;;
65799;SDS011;52544;48.116;11.660;2023-01-28T01:42:49;29.70;;;12.50;;
65799;SDS011;52544;48.116;11.660;2023-01-28T01:45:14;32.70;;;12.73;;
65799;SDS011;52544;48.116;11.660;2023-01-28T01:53:14;55.35;;;16.45;;
65799;SDS011;52544;48.116;11.660;2023-01-28T01:55:44;39.53;;;15.38;;
65799;SDS011;52544;48.116;11.660;2023-01-28T01:58:13;33.60;;;15.15;;
65799;SDS011;52544;48.116;11.660;2023-01-28T02:00:41;33.50;;;12.95;;
65799;SDS011;52544;48.116;11.660;2023-01-28T02:03:07;30.08;;;13.55;;
65799;SDS011;52544;48.116;11.660;2023-01-28T02:05:34;36.08;;;13.18;;
65799;SDS011;52544;48.116;11.660;2023-01-28T02:07:59;30.65;;;12.07;;
65799;SDS011;52544;48.116;11.660;2023-01-28T02:10:46;33.22;;;13.13;;
65799;SDS011;52544;48.116;11.660;2023-01-28T02:13:16;27.70;;;11.45;;
65799;SDS011;52544;48.116;11.660;2023-01-28T02:15:44;34.75;;;12.18;;
65799;SDS011;52544;48.116;11.660;2023-01-28T02:18:10;34.30;;;14.20;;
65799;SDS011;52544;48.116;11.660;2023-01-28T02:26:13;31.95;;;13.30;;
65799;SDS011;52544;48.116;11.660;2023-01-28T02:29:01;27.65;;;11.93;;
65799;SDS011;52544;48.116;11.660;2023-01-28T02:31:43;28.88;;;12.48;;
65799;SDS011;52544;48.116;11.660;2023-01-28T02:36:52;29.83;;;11.65;;
65799;SDS011;52544;48.116;11.660;2023-01-28T02:39:25;32.63;;;13.25;;
65799;SDS011;52544;48.116;11.660;2023-01-28T02:41:59;28.73;;;12.10;;
65799;SDS011;52544;48.116;11.660;2023-01-28T02:44:29;32.95;;;12.23;;
65799;SDS011;52544;48.116;11.660;2023-01-28T02:46:55;33.72;;;13.05;;
65799;SDS011;52544;48.116;11.660;2023-01-28T03:03:35;31.00;;;13.52;;
65799;SDS011;52544;48.116;11.660;2023-01-28T03:06:37;29.13;;;12.45;;
65799;SDS011;52544;48.116;11.660;2023-01-28T03:09:06;26.67;;;11.85;;
65799;SDS011;52544;48.116;11.660;2023-01-28T03:14:49;33.47;;;12.27;;
65799;SDS011;52544;48.116;11.660;2023-01-28T03:17:55;32.28;;;12.88;;
65799;SDS011;52544;48.116;11.660;2023-01-28T03:20:47;30.15;;;11.48;;
65799;SDS011;52544;48.116;11.660;2023-01-28T03:23:43;29.08;;;11.52;;
65799;SDS011;52544;48.116;11.660;2023-01-28T03:26:40;32.13;;;12.23;;
65799;SDS011;52544;48.116;11.660;2023-01-28T03:29:37;29.65;;;11.95;;
65799;SDS011;52544;48.116;11.660;2023-01-28T03:32:23;30.15;;;11.35;;
65799;SDS011;52544;48.116;11.660;2023-01-28T03:35:08;28.80;;;11.93;;
65799;SDS011;52544;48.116;11.660;2023-01-28T03:37:53;35.15;;;12.63;;
65799;SDS011;52544;48.116;11.660;2023-01-28T03:40:19;31.70;;;12.23;;
65799;SDS011;52544;48.116;11.660;2023-01-28T03:42:44;25.73;;;11.25;;
65799;SDS011;52544;48.116;11.660;2023-01-28T03:45:10;33.88;;;12.45;;
65799;SDS011;52544;48.116;11.660;2023-01-28T03:47:36;31.48;;;12.88;;
65799;SDS011;52544;48.116;11.660;2023-01-28T03:50:04;31.08;;;12.43;;
65799;SDS011;52544;48.116;11.660;2023-01-28T03:52:31;30.55;;;12.90;;
65799;SDS011;52544;48.116;11.660;2023-01-28T03:54:57;33.05;;;12.70;;
65799;SDS011;52544;48.116;11.660;2023-01-28T03:57:24;26.90;;;11.77;;
65799;SDS011;52544;48.116;11.660;2023-01-28T03:59:51;33.33;;;11.75;;
65799;SDS011;52544;48.116;11.660;2023-01-28T04:02:17;30.63;;;11.60;;
65799;SDS011;52544;48.116;11.660;2023-01-28T04:04:44;35.75;;;13.15;;
65799;SDS011;52544;48.116;11.660;2023-01-28T04:07:10;35.25;;;12.32;;
65799;SDS011;52544;48.116;11.660;2023-01-28T04:09:38;31.42;;;12.25;;
65799;SDS011;52544;48.116;11.660;2023-01-28T04:12:04;28.65;;;12.07;;
65799;SDS011;52544;48.116;11.660;2023-01-28T04:14:30;31.25;;;13.73;;
65799;SDS011;52544;48.116;11.660;2023-01-28T04:16:55;29.80;;;12.52;;
65799;SDS011;52544;48.116;11.660;2023-01-28T04:19:22;26.40;;;12.05;;
65799;SDS011;52544;48.116;11.660;2023-01-28T04:21:48;30.42;;;12.18;;
65799;SDS011;52544;48.116;11.660;2023-01-28T04:24:15;34.05;;;13.27;;
65799;SDS011;52544;48.116;11.660;2023-01-28T04:26:41;30.38;;;12.05;;
65799;SDS011;52544;48.116;11.660;2023-01-28T04:29:06;22.75;;;10.77;;
65799;SDS011;52544;48.116;11.660;2023-01-28T04:31:32;30.15;;;12.00;;
65799;SDS011;52544;48.116;11.660;2023-01-28T04:33:58;28.15;;;12.20;;
65799;SDS011;52544;48.116;11.660;2023-01-28T04:36:24;32.40;;;13.02;;
65799;SDS011;52544;48.116;11.660;2023-01-28T04:38:50;30.80;;;12.02;;
65799;SDS011;52544;48.116;11.660;2023-01-28T04:41:15;29.75;;;12.60;;
65799;SDS011;52544;48.116;11.660;2023-01-28T04:43:41;29.35;;;13.00;;
65799;SDS011;52544;48.116;11.660;2023-01-28T04:46:06;30.83;;;12.75;;
65799;SDS011;52544;48.116;11.660;2023-01-28T04:48:32;33.63;;;12.63;;
65799;SDS011;52544;48.116;11.660;2023-01-28T04:50:59;29.05;;;11.75;;
65799;SDS011;52544;48.116;11.660;2023-01-28T04:53:25;30.05;;;12.23;;
65799;SDS011;52544;48.116;11.660;2023-01-28T04:55:50;37.78;;;12.77;;
65799;SDS011;52544;48.116;11.660;2023-01-28T04:58:16;31.65;;;13.75;;
65799;SDS011;52544;48.116;11.660;2023-01-28T05:00:41;29.25;;;12.60;;
65799;SDS011;52544;48.116;11.660;2023-01-28T05:03:06;29.17;;;12.27;;
65799;SDS011;52544;48.116;11.660;2023-01-28T05:05:32;28.27;;;11.25;;
65799;SDS011;52544;48.116;11.660;2023-01-28T05:07:57;34.17;;;13.70;;
65799;SDS011;52544;48.116;11.660;2023-01-28T05:10:23;28.50;;;11.38;;
65799;SDS011;52544;48.116;11.660;2023-01-28T05:12:49;27.30;;;12.23;;
65799;SDS011;52544;48.116;11.660;2023-01-28T05:15:15;28.60;;;12.38;;
65799;SDS011;52544;48.116;11.660;2023-01-28T05:17:41;28.38;;;11.82;;
65799;SDS011;52544;48.116;11.660;2023-01-28T05:20:08;27.45;;;11.65;;
65799;SDS011;52544;48.116;11.660;2023-01-28T05:22:35;30.63;;;11.77;;
65799;SDS011;52544;48.116;11.660;2023-01-28T05:25:01;28.33;;;11.07;;
65799;SDS011;52544;48.116;11.660;2023-01-28T05:27:28;35.50;;;13.00;;
65799;SDS011;52544;48.116;11.660;2023-01-28T05:29:53;29.20;;;11.25;;
65799;SDS011;52544;48.116;11.660;2023-01-28T05:32:19;31.95;;;12.77;;
65799;SDS011;52544;48.116;11.660;2023-01-28T05:34:44;33.92;;;12.00;;
65799;SDS011;52544;48.116;11.660;2023-01-28T05:37:09;32.28;;;12.90;;
65799;SDS011;52544;48.116;11.660;2023-01-28T05:39:35;26.15;;;10.98;;
65799;SDS011;52544;48.116;11.660;2023-01-28T05:42:00;29.98;;;11.63;;
65799;SDS011;52544;48.116;11.660;2023-01-28T05:44:26;27.80;;;11.38;;
65799;SDS011;52544;48.116;11.660;2023-01-28T05:46:51;30.83;;;11.73;;
65799;SDS011;52544;48.116;11.660;2023-01-28T05:49:16;27.13;;;11.00;;
65799;SDS011;52544;48.116;11.660;2023-01-28T05:51:42;28.27;;;10.70;;
65799;SDS011;52544;48.116;11.660;2023-01-28T05:54:07;32.40;;;11.98;;
65799;SDS011;52544;48.116;11.660;2023-01-28T05:56:34;31.02;;;11.52;;
65799;SDS011;52544;48.116;11.660;2023-01-28T05:59:01;32.28;;;11.25;;
65799;SDS011;52544;48.116;11.660;2023-01-28T06:01:27;30.77;;;11.48;;
65799;SDS011;52544;48.116;11.660;2023-01-28T06:03:52;33.20;;;11.48;;
65799;SDS011;52544;48.116;11.660;2023-01-28T06:06:18;27.55;;;11.43;;
65799;SDS011;52544;48.116;11.660;2023-01-28T06:08:43;22.83;;;10.50;;
65799;SDS011;52544;48.116;11.660;2023-01-28T06:11:09;27.23;;;12.13;;
65799;SDS011;52544;48.116;11.660;2023-01-28T06:13:34;30.25;;;11.55;;
65799;SDS011;52544;48.116;11.660;2023-01-28T06:15:59;29.88;;;12.02;;
65799;SDS011;52544;48.116;11.660;2023-01-28T06:18:25;28.15;;;11.20;;
65799;SDS011;52544;48.116;11.660;2023-01-28T06:20:50;27.90;;;11.40;;
65799;SDS011;52544;48.116;11.660;2023-01-28T06:23:16;29.30;;;11.52;;
65799;SDS011;52544;48.116;11.660;2023-01-28T06:25:41;27.25;;;12.23;;
65799;SDS011;52544;48.116;11.660;2023-01-28T06:28:07;30.35;;;11.35;;
65799;SDS011;52544;48.116;11.660;2023-01-28T06:30:32;31.67;;;12.25;;
65799;SDS011;52544;48.116;11.660;2023-01-28T06:32:57;30.17;;;11.80;;
65799;SDS011;52544;48.116;11.660;2023-01-28T06:35:23;27.73;;;11.73;;
65799;SDS011;52544;48.116;11.660;2023-01-28T06:37:48;27.27;;;11.75;;
65799;SDS011;52544;48.116;11.660;2023-01-28T06:40:14;26.00;;;11.30;;
65799;SDS011;52544;48.116;11.660;2023-01-28T06:42:40;28.67;;;11.60;;
65799;SDS011;52544;48.116;11.660;2023-01-28T06:45:05;28.30;;;11.25;;
65799;SDS011;52544;48.116;11.660;2023-01-28T06:47:31;24.33;;;11.18;;
65799;SDS011;52544;48.116;11.660;2023-01-28T06:49:56;29.27;;;12.20;;
65799;SDS011;52544;48.116;11.660;2023-01-28T06:52:22;29.08;;;11.95;;
65799;SDS011;52544;48.116;11.660;2023-01-28T06:54:47;32.45;;;12.52;;
65799;SDS011;52544;48.116;11.660;2023-01-28T06:57:12;31.63;;;12.48;;
65799;SDS011;52544;48.116;11.660;2023-01-28T06:59:38;26.70;;;12.18;;
65799;SDS011;52544;48.116;11.660;2023-01-28T07:02:03;27.73;;;11.82;;
65799;SDS011;52544;48.116;11.660;2023-01-28T07:04:28;36.85;;;13.30;;
65799;SDS011;52544;48.116;11.660;2023-01-28T07:06:55;26.80;;;12.90;;
65799;SDS011;52544;48.116;11.660;2023-01-28T07:09:21;27.67;;;12.10;;
65799;SDS011;52544;48.116;11.660;2023-01-28T07:11:46;28.52;;;12.73;;
65799;SDS011;52544;48.116;11.660;2023-01-28T07:14:11;31.35;;;12.45;;
65799;SDS011;52544;48.116;11.660;2023-01-28T07:16:37;32.78;;;13.15;;
65799;SDS011;52544;48.116;11.660;2023-01-28T07:19:02;32.83;;;12.85;;
65799;SDS011;52544;48.116;11.660;2023-01-28T07:21:27;27.75;;;11.88;;
65799;SDS011;52544;48.116;11.660;2023-01-28T07:23:53;26.60;;;11.57;;
65799;SDS011;52544;48.116;11.660;2023-01-28T07:26:18;28.45;;;11.23;;
65799;SDS011;52544;48.116;11.660;2023-01-28T07:28:44;29.13;;;11.85;;
65799;SDS011;52544;48.116;11.660;2023-01-28T07:31:10;28.30;;;11.13;;
65799;SDS011;52544;48.116;11.660;2023-01-28T07:33:35;29.30;;;11.60;;
65799;SDS011;52544;48.116;11.660;2023-01-28T07:36:01;28.50;;;12.85;;
65799;SDS011;52544;48.116;11.660;2023-01-28T07:38:26;29.20;;;11.57;;
65799;SDS011;52544;48.116;11.660;2023-01-28T07:40:51;30.90;;;11.63;;
65799;SDS011;52544;48.116;11.660;2023-01-28T07:43:17;24.98;;;11.27;;
65799;SDS011;52544;48.116;11.660;2023-01-28T07:45:42;31.85;;;12.77;;
65799;SDS011;52544;48.116;11.660;2023-01-28T07:48:09;27.25;;;11.82;;
65799;SDS011;52544;48.116;11.660;2023-01-28T07:50:36;32.00;;;13.10;;
65799;SDS011;52544;48.116;11.660;2023-01-28T07:53:07;30.80;;;12.05;;
65799;SDS011;52544;48.116;11.660;2023-01-28T07:55:34;32.25;;;13.57;;
65799;SDS011;52544;48.116;11.660;2023-01-28T07:58:01;29.35;;;11.68;;
65799;SDS011;52544;48.116;11.660;2023-01-28T08:00:29;30.48;;;12.27;;
65799;SDS011;52544;48.116;11.660;2023-01-28T08:02:59;29.08;;;12.20;;
65799;SDS011;52544;48.116;11.660;2023-01-28T08:05:28;28.42;;;11.13;;
65799;SDS011;52544;48.116;11.660;2023-01-28T08:08:17;28.23;;;11.40;;
65799;SDS011;52544;48.116;11.660;2023-01-28T08:10:42;30.25;;;13.07;;
65799;SDS011;52544;48.116;11.660;2023-01-28T08:13:08;33.65;;;13.38;;
65799;SDS011;52544;48.116;11.660;2023-01-28T08:15:34;27.60;;;12.20;;
65799;SDS011;52544;48.116;11.660;2023-01-28T08:18:01;30.15;;;11.27;;
65799;SDS011;52544;48.116;11.660;2023-01-28T08:20:28;27.58;;;11.65;;
65799;SDS011;52544;48.116;11.660;2023-01-28T08:23:04;28.15;;;11.95;;
65799;SDS011;52544;48.116;11.660;2023-01-28T08:25:30;28.63;;;12.80;;
65799;SDS011;52544;48.116;11.660;2023-01-28T08:27:57;31.08;;;12.70;;
65799;SDS011;52544;48.116;11.660;2023-01-28T08:30:22;30.33;;;11.73;;
65799;SDS011;52544;48.116;11.660;2023-01-28T08:32:48;25.77;;;11.25;;
65799;SDS011;52544;48.116;11.660;2023-01-28T08:35:13;25.48;;;11.07;;
65799;SDS011;52544;48.116;11.660;2023-01-28T08:37:38;32.42;;;12.88;;
65799;SDS011;52544;48.116;11.660;2023-01-28T08:40:04;31.25;;;12.82;;
65799;SDS011;52544;48.116;11.660;2023-01-28T08:42:30;28.35;;;11.45;;
65799;SDS011;52544;48.116;11.660;2023-01-28T08:44:55;30.00;;;11.50;;
65799;SDS011;52544;48.116;11.660;2023-01-28T08:47:21;25.10;;;10.00;;
65799;SDS011;52544;48.116;11.660;2023-01-28T08:49:46;30.17;;;12.40;;
65799;SDS011;52544;48.116;11.660;2023-01-28T08:52:11;28.30;;;11.32;;
65799;SDS011;52544;48.116;11.660;2023-01-28T08:54:37;28.88;;;11.25;;
65799;SDS011;52544;48.116;11.660;2023-01-28T08:57:02;26.30;;;10.63;;
65799;SDS011;52544;48.116;11.660;2023-01-28T08:59:28;24.88;;;10.13;;
65799;SDS011;52544;48.116;11.660;2023-01-28T09:01:53;25.70;;;10.82;;
65799;SDS011;52544;48.116;11.660;2023-01-28T09:04:18;27.17;;;10.73;;
65799;SDS011;52544;48.116;11.660;2023-01-28T09:06:44;29.27;;;12.57;;
65799;SDS011;52544;48.116;11.660;2023-01-28T09:09:09;24.00;;;10.15;;
65799;SDS011;52544;48.116;11.660;2023-01-28T09:11:35;35.47;;;11.63;;
65799;SDS011;52544;48.116;11.660;2023-01-28T09:14:00;27.38;;;11.13;;
65799;SDS011;52544;48.116;11.660;2023-01-28T09:16:25;28.83;;;11.70;;
65799;SDS011;52544;48.116;11.660;2023-01-28T09:18:51;28.13;;;11.45;;
65799;SDS011;52544;48.116;11.660;2023-01-28T09:21:18;27.42;;;10.85;;
65799;SDS011;52544;48.116;11.660;2023-01-28T09:23:43;29.95;;;12.45;;
65799;SDS011;52544;48.116;11.660;2023-01-28T09:26:09;29.85;;;12.90;;
65799;SDS011;52544;48.116;11.660;2023-01-28T09:28:34;27.40;;;10.68;;
65799;SDS011;52544;48.116;11.660;2023-01-28T09:31:03;27.63;;;11.27;;
65799;SDS011;52544;48.116;11.660;2023-01-28T09:33:31;27.63;;;11.40;;
65799;SDS011;52544;48.116;11.660;2023-01-28T09:36:00;28.17;;;11.75;;
65799;SDS011;52544;48.116;11.660;2023-01-28T09:38:27;26.55;;;11.18;;
65799;SDS011;52544;48.116;11.660;2023-01-28T09:40:54;27.83;;;12.48;;
65799;SDS011;52544;48.116;11.660;2023-01-28T09:46:08;28.52;;;10.82;;
65799;SDS011;52544;48.116;11.660;2023-01-28T09:48:38;28.48;;;11.63;;
65799;SDS011;52544;48.116;11.660;2023-01-28T09:51:14;27.38;;;11.35;;
65799;SDS011;52544;48.116;11.660;2023-01-28T09:54:04;28.15;;;11.70;;
65799;SDS011;52544;48.116;11.660;2023-01-28T09:56:38;28.60;;;11.07;;
65799;SDS011;52544;48.116;11.660;2023-01-28T09:59:28;28.77;;;11.85;;
65799;SDS011;52544;48.116;11.660;2023-01-28T10:01:56;32.22;;;11.90;;
65799;SDS011;52544;48.116;11.660;2023-01-28T10:17:30;28.02;;;10.27;;
65799;SDS011;52544;48.116;11.660;2023-01-28T10:20:02;23.60;;;11.02;;
65799;SDS011;52544;48.116;11.660;2023-01-28T10:22:36;25.80;;;11.25;;
65799;SDS011;52544;48.116;11.660;2023-01-28T10:25:13;26.25;;;11.50;;
65799;SDS011;52544;48.116;11.660;2023-01-28T10:27:45;24.33;;;11.00;;
65799;SDS011;52544;48.116;11.660;2023-01-28T10:30:20;26.48;;;11.00;;
65799;SDS011;52544;48.116;11.660;2023-01-28T10:35:21;23.25;;;10.02;;
65799;SDS011;52544;48.116;11.660;2023-01-28T10:37:48;22.27;;;9.60;;
65799;SDS011;52544;48.116;11.660;2023-01-28T10:40:15;20.67;;;10.20;;
65799;SDS011;52544;48.116;11.660;2023-01-28T10:42:42;23.42;;;10.35;;
65799;SDS011;52544;48.116;11.660;2023-01-28T10:45:16;23.23;;;9.93;;
65799;SDS011;52544;48.116;11.660;2023-01-28T10:47:53;24.58;;;11.10;;
65799;SDS011;52544;48.116;11.660;2023-01-28T10:50:28;26.60;;;11.75;;
65799;SDS011;52544;48.116;11.660;2023-01-28T10:52:56;23.63;;;9.98;;
65799;SDS011;52544;48.116;11.660;2023-01-28T10:55:28;23.40;;;10.55;;
65799;SDS011;52544;48.116;11.660;2023-01-28T10:57:55;24.35;;;10.00;;
65799;SDS011;52544;48.116;11.660;2023-01-28T11:00:23;22.85;;;10.32;;
65799;SDS011;52544;48.116;11.660;2023-01-28T11:02:52;20.85;;;10.43;;
65799;SDS011;52544;48.116;11.660;2023-01-28T11:05:19;22.77;;;10.52;;
65799;SDS011;52544;48.116;11.660;2023-01-28T11:10:39;19.92;;;10.02;;
65799;SDS011;52544;48.116;11.660;2023-01-28T11:13:13;23.40;;;10.32;;
65799;SDS011;52544;48.116;11.660;2023-01-28T11:15:47;25.77;;;11.18;;
65799;SDS011;52544;48.116;11.660;2023-01-28T11:18:24;18.58;;;9.25;;
65799;SDS011;52544;48.116;11.660;2023-01-28T11:20:56;21.80;;;10.40;;
65799;SDS011;52544;48.116;11.660;2023-01-28T11:23:30;25.55;;;10.98;;
65799;SDS011;52544;48.116;11.660;2023-01-28T11:25:59;25.67;;;11.02;;
65799;SDS011;52544;48.116;11.660;2023-01-28T11:28:29;23.67;;;10.32;;
65799;SDS011;52544;48.116;11.660;2023-01-28T11:30:56;25.52;;;11.23;;
65799;SDS011;52544;48.116;11.660;2023-01-28T11:33:35;25.63;;;11.35;;
65799;SDS011;52544;48.116;11.660;2023-01-28T11:36:21;21.15;;;9.65;;
65799;SDS011;52544;48.116;11.660;2023-01-28T11:38:56;24.13;;;10.82;;
65799;SDS011;52544;48.116;11.660;2023-01-28T11:43:54;22.58;;;10.57;;
65799;SDS011;52544;48.116;11.660;2023-01-28T11:46:34;22.23;;;10.80;;
65799;SDS011;52544;48.116;11.660;2023-01-28T12:02:54;18.05;;;8.50;;
65799;SDS011;52544;48.116;11.660;2023-01-28T12:05:42;19.35;;;9.93;;
65799;SDS011;52544;48.116;11.660;2023-01-28T12:13:46;22.20;;;10.07;;
65799;SDS011;52544;48.116;11.660;2023-01-28T12:21:47;21.77;;;9.48;;
65799;SDS011;52544;48.116;11.660;2023-01-28T12:27:32;19.58;;;9.25;;
65799;SDS011;52544;48.116;11.660;2023-01-28T12:32:47;22.20;;;10.07;;
65799;SDS011;52544;48.116;11.660;2023-01-28T12:41:03;21.83;;;9.65;;
65799;SDS011;52544;48.116;11.660;2023-01-28T12:43:42;21.88;;;10.07;;
65799;SDS011;52544;48.116;11.660;2023-01-28T12:48:59;20.02;;;9.77;;
65799;SDS011;52544;48.116;11.660;2023-01-28T12:51:36;19.75;;;9.50;;
65799;SDS011;52544;48.116;11.660;2023-01-28T12:54:30;23.00;;;10.18;;
65799;SDS011;52544;48.116;11.660;2023-01-28T12:57:02;19.85;;;10.02;;
65799;SDS011;52544;48.116;11.660;2023-01-28T12:59:28;22.60;;;10.30;;
65799;SDS011;52544;48.116;11.660;2023-01-28T13:04:43;19.85;;;9.10;;
65799;SDS011;52544;48.116;11.660;2023-01-28T13:09:49;19.13;;;8.98;;
65799;SDS011;52544;48.116;11.660;2023-01-28T13:12:18;19.65;;;9.55;;
65799;SDS011;52544;48.116;11.660;2023-01-28T13:14:46;19.33;;;9.35;;
65799;SDS011;52544;48.116;11.660;2023-01-28T13:17:29;24.25;;;10.43;;
65799;SDS011;52544;48.116;11.660;2023-01-28T13:19:56;18.55;;;8.25;;
65799;SDS011;52544;48.116;11.660;2023-01-28T13:22:27;20.42;;;8.98;;
65799;SDS011;52544;48.116;11.660;2023-01-28T13:24:54;19.05;;;8.95;;
65799;SDS011;52544;48.116;11.660;2023-01-28T13:27:21;22.45;;;8.95;;
65799;SDS011;52544;48.116;11.660;2023-01-28T13:29:58;18.60;;;8.98;;
65799;SDS011;52544;48.116;11.660;2023-01-28T13:32:27;18.45;;;8.13;;
65799;SDS011;52544;48.116;11.660;2023-01-28T13:35:06;19.55;;;9.25;;
65799;SDS011;52544;48.116;11.660;2023-01-28T13:37:51;17.90;;;8.65;;
65799;SDS011;52544;48.116;11.660;2023-01-28T13:40:22;22.30;;;8.90;;
65799;SDS011;52544;48.116;11.660;2023-01-28T13:42:57;17.85;;;8.82;;
65799;SDS011;52544;48.116;11.660;2023-01-28T13:45:27;15.27;;;7.68;;
65799;SDS011;52544;48.116;11.660;2023-01-28T13:47:55;19.48;;;8.00;;
65799;SDS011;52544;48.116;11.660;2023-01-28T13:50:28;18.90;;;8.57;;
65799;SDS011;52544;48.116;11.660;2023-01-28T13:53:03;23.63;;;9.30;;
65799;SDS011;52544;48.116;11.660;2023-01-28T13:55:41;19.30;;;8.68;;
65799;SDS011;52544;48.116;11.660;2023-01-28T14:01:17;19.73;;;8.50;;
65799;SDS011;52544;48.116;11.660;2023-01-28T14:06:30;17.00;;;8.02;;
65799;SDS011;52544;48.116;11.660;2023-01-28T14:17:44;19.73;;;8.48;;
65799;SDS011;52544;48.116;11.660;2023-01-28T14:20:22;21.70;;;8.50;;
65799;SDS011;52544;48.116;11.660;2023-01-28T14:22:53;19.10;;;8.00;;
65799;SDS011;52544;48.116;11.660;2023-01-28T14:25:32;20.73;;;8.98;;
65799;SDS011;52544;48.116;11.660;2023-01-28T14:27:59;21.63;;;8.10;;
65799;SDS011;52544;48.116;11.660;2023-01-28T14:30:38;19.73;;;8.65;;
65799;SDS011;52544;48.116;11.660;2023-01-28T14:33:18;21.67;;;8.90;;
65799;SDS011;52544;48.116;11.660;2023-01-28T14:35:46;19.77;;;8.88;;
65799;SDS011;52544;48.116;11.660;2023-01-28T14:38:14;18.05;;;8.63;;
65799;SDS011;52544;48.116;11.660;2023-01-28T14:40:43;16.27;;;8.15;;
65799;SDS011;52544;48.116;11.660;2023-01-28T14:43:17;20.15;;;8.20;;
65799;SDS011;52544;48.116;11.660;2023-01-28T14:51:08;19.05;;;7.80;;
65799;SDS011;52544;48.116;11.660;2023-01-28T14:56:51;17.63;;;7.93;;
65799;SDS011;52544;48.116;11.660;2023-01-28T14:59:47;18.50;;;8.90;;
65799;SDS011;52544;48.116;11.660;2023-01-28T15:04:45;21.35;;;8.75;;
65799;SDS011;52544;48.116;11.660;2023-01-28T15:07:20;26.77;;;10.50;;
65799;SDS011;52544;48.116;11.660;2023-01-28T15:10:05;20.45;;;9.55;;
65799;SDS011;52544;48.116;11.660;2023-01-28T15:12:39;23.00;;;9.75;;
65799;SDS011;52544;48.116;11.660;2023-01-28T15:15:10;22.05;;;8.85;;
65799;SDS011;52544;48.116;11.660;2023-01-28T15:17:42;20.17;;;8.80;;
65799;SDS011;52544;48.116;11.660;2023-01-28T15:20:08;20.23;;;8.57;;
65799;SDS011;52544;48.116;11.660;2023-01-28T15:22:34;17.88;;;7.95;;
65799;SDS011;52544;48.116;11.660;2023-01-28T15:24:59;20.42;;;8.27;;
65799;SDS011;52544;48.116;11.660;2023-01-28T15:27:26;20.40;;;8.82;;
65799;SDS011;52544;48.116;11.660;2023-01-28T15:29:55;19.85;;;8.65;;
65799;SDS011;52544;48.116;11.660;2023-01-28T15:32:22;17.85;;;9.10;;
65799;SDS011;52544;48.116;11.660;2023-01-28T15:34:49;20.42;;;9.57;;
65799;SDS011;52544;48.116;11.660;2023-01-28T15:37:15;17.25;;;8.63;;
65799;SDS011;52544;48.116;11.660;2023-01-28T15:39:42;18.77;;;8.40;;
65799;SDS011;52544;48.116;11.660;2023-01-28T15:42:13;21.42;;;8.77;;
65799;SDS011;52544;48.116;11.660;2023-01-28T15:44:45;22.08;;;8.57;;
65799;SDS011;52544;48.116;11.660;2023-01-28T15:47:22;18.63;;;8.30;;
65799;SDS011;52544;48.116;11.660;2023-01-28T15:49:54;21.77;;;9.40;;
65799;SDS011;52544;48.116;11.660;2023-01-28T15:52:38;19.67;;;8.63;;
65799;SDS011;52544;48.116;11.660;2023-01-28T15:55:06;26.20;;;9.63;;
65799;SDS011;52544;48.116;11.660;2023-01-28T15:57:53;24.00;;;9.77;;
65799;SDS011;52544;48.116;11.660;2023-01-28T16:00:18;23.40;;;9.52;;
65799;SDS011;52544;48.116;11.660;2023-01-28T16:02:49;18.55;;;8.77;;
65799;SDS011;52544;48.116;11.660;2023-01-28T16:05:32;17.50;;;8.98;;
65799;SDS011;52544;48.116;11.660;2023-01-28T16:08:11;21.63;;;11.45;;
65799;SDS011;52544;48.116;11.660;2023-01-28T16:10:53;29.88;;;13.45;;
65799;SDS011;52544;48.116;11.660;2023-01-28T16:13:30;29.52;;;9.75;;
65799;SDS011;52544;48.116;11.660;2023-01-28T16:15:57;18.17;;;8.93;;
65799;SDS011;52544;48.116;11.660;2023-01-28T16:21:32;21.98;;;8.27;;
65799;SDS011;52544;48.116;11.660;2023-01-28T16:24:22;18.52;;;7.40;;
65799;SDS011;52544;48.116;11.660;2023-01-28T16:26:59;18.00;;;7.70;;
65799;SDS011;52544;48.116;11.660;2023-01-28T16:29:29;17.33;;;7.20;;
65799;SDS011;52544;48.116;11.660;2023-01-28T16:31:55;17.98;;;7.18;;